Hartford, Connecticut
Traffic Map
Current Weather Conditions
Hartford, Connecticut
Overcast
Overcast

Feels Like: -2°
Wind Chill: -2° Ceiling: 3000
Heat Index: Visibility: 10mi
Dew Point: -3° Wind: 12mph
Humidity: 70% Direction: 10° (N)
Pressure: 29.86in Gusts: 0mph
Raw Report DataKHFD 080734Z AUTO 01010KT 10SM BKN030 OVC036 02/M03 A2986 RMK AO2 T00221028
Traffic Incident Summary
Active as of:
Severity:
Category:
InformationThere was an issue retrieving the traffic information for this location. Please try a different location or try again shortly.
Advertisements
Track Severe Weather on mobile